Pelican Lake, Wisconsin
Current Conditions -  °F | °C
As of 1:53 AM on Thursday 27 Nov 2014 (Local Time) from KRHI Reporting Station
Light Snow Light Snow  
Wind Chill: 12°   Ceiling: 2000
Heat Index: 12°   Visibility: 5mi
Dew Point:   Wind: 3mph
Humidity: 84%   Direction: 350°N
Pressure: 30.22"   Gusts: NA
Location:  45.5°N, 89.17°W
Report Text: KRHI 270753Z AUTO 35003KT 5SM -SN BR SCT012 OVC020 M11/M13 A3022 RMK AO2 SNB07E17B33 SLP265 P0000 T11111133
Loading
Personal Weather Stations






























Interactive Weather Map New forecast layout! Learn more

10-Day Weather Forecast

Advertisements
Track Severe Weather on mobile